sensor_id;sensor_type;location;lat;lon;timestamp;P1;durP1;ratioP1;P2;durP2;ratioP2
9449;SDS011;4763;48.370;10.874;2024-03-07T00:00:44;20.57;;;14.00;;
9449;SDS011;4763;48.370;10.874;2024-03-07T00:03:13;21.93;;;14.37;;
9449;SDS011;4763;48.370;10.874;2024-03-07T00:05:42;23.30;;;15.27;;
9449;SDS011;4763;48.370;10.874;2024-03-07T00:08:22;17.57;;;13.13;;
9449;SDS011;4763;48.370;10.874;2024-03-07T00:11:06;21.00;;;13.67;;
9449;SDS011;4763;48.370;10.874;2024-03-07T00:13:35;18.20;;;13.53;;
9449;SDS011;4763;48.370;10.874;2024-03-07T00:16:10;18.30;;;13.23;;
9449;SDS011;4763;48.370;10.874;2024-03-07T00:18:56;18.43;;;12.97;;
9449;SDS011;4763;48.370;10.874;2024-03-07T00:21:46;17.40;;;12.47;;
9449;SDS011;4763;48.370;10.874;2024-03-07T00:24:14;22.23;;;13.13;;
9449;SDS011;4763;48.370;10.874;2024-03-07T00:26:45;19.13;;;14.20;;
9449;SDS011;4763;48.370;10.874;2024-03-07T00:29:15;18.40;;;13.53;;
9449;SDS011;4763;48.370;10.874;2024-03-07T00:31:44;21.40;;;13.90;;
9449;SDS011;4763;48.370;10.874;2024-03-07T00:34:12;21.27;;;14.40;;
9449;SDS011;4763;48.370;10.874;2024-03-07T00:37:35;19.93;;;13.47;;
9449;SDS011;4763;48.370;10.874;2024-03-07T00:40:07;19.60;;;13.70;;
9449;SDS011;4763;48.370;10.874;2024-03-07T00:43:29;18.63;;;13.67;;
9449;SDS011;4763;48.370;10.874;2024-03-07T00:45:56;20.53;;;12.97;;
9449;SDS011;4763;48.370;10.874;2024-03-07T00:48:24;20.97;;;13.17;;
9449;SDS011;4763;48.370;10.874;2024-03-07T00:50:51;19.87;;;14.27;;
9449;SDS011;4763;48.370;10.874;2024-03-07T00:53:37;17.43;;;12.93;;
9449;SDS011;4763;48.370;10.874;2024-03-07T00:59:35;18.53;;;12.37;;
9449;SDS011;4763;48.370;10.874;2024-03-07T01:02:02;19.57;;;13.77;;
9449;SDS011;4763;48.370;10.874;2024-03-07T01:04:31;22.00;;;15.57;;
9449;SDS011;4763;48.370;10.874;2024-03-07T01:06:58;18.90;;;13.03;;
9449;SDS011;4763;48.370;10.874;2024-03-07T01:09:26;22.33;;;14.60;;
9449;SDS011;4763;48.370;10.874;2024-03-07T01:11:54;19.97;;;13.73;;
9449;SDS011;4763;48.370;10.874;2024-03-07T01:14:22;19.50;;;12.77;;
9449;SDS011;4763;48.370;10.874;2024-03-07T01:17:00;23.17;;;14.33;;
9449;SDS011;4763;48.370;10.874;2024-03-07T01:29:10;20.03;;;14.40;;
9449;SDS011;4763;48.370;10.874;2024-03-07T01:31:36;24.37;;;15.17;;
9449;SDS011;4763;48.370;10.874;2024-03-07T01:34:03;21.40;;;14.10;;
9449;SDS011;4763;48.370;10.874;2024-03-07T01:36:30;22.93;;;14.63;;
9449;SDS011;4763;48.370;10.874;2024-03-07T01:38:57;22.97;;;13.27;;
9449;SDS011;4763;48.370;10.874;2024-03-07T01:43:59;22.47;;;14.83;;
9449;SDS011;4763;48.370;10.874;2024-03-07T01:46:27;21.37;;;14.07;;
9449;SDS011;4763;48.370;10.874;2024-03-07T01:48:55;21.33;;;14.40;;
9449;SDS011;4763;48.370;10.874;2024-03-07T05:17:48;43.70;;;26.17;;
9449;SDS011;4763;48.370;10.874;2024-03-07T05:20:18;39.07;;;23.60;;
9449;SDS011;4763;48.370;10.874;2024-03-07T05:22:45;39.83;;;23.93;;
9449;SDS011;4763;48.370;10.874;2024-03-07T05:25:15;41.70;;;24.17;;
9449;SDS011;4763;48.370;10.874;2024-03-07T05:27:43;40.97;;;23.40;;
9449;SDS011;4763;48.370;10.874;2024-03-07T05:30:15;34.83;;;23.47;;
9449;SDS011;4763;48.370;10.874;2024-03-07T05:32:42;39.77;;;24.23;;
9449;SDS011;4763;48.370;10.874;2024-03-07T05:35:11;38.47;;;24.13;;
9449;SDS011;4763;48.370;10.874;2024-03-07T05:37:38;41.13;;;24.10;;
9449;SDS011;4763;48.370;10.874;2024-03-07T05:40:12;43.83;;;24.10;;
9449;SDS011;4763;48.370;10.874;2024-03-07T05:42:39;41.77;;;26.73;;
9449;SDS011;4763;48.370;10.874;2024-03-07T05:45:07;38.53;;;23.47;;
9449;SDS011;4763;48.370;10.874;2024-03-07T05:47:35;42.60;;;24.93;;
9449;SDS011;4763;48.370;10.874;2024-03-07T05:50:03;44.17;;;24.93;;
9449;SDS011;4763;48.370;10.874;2024-03-07T05:52:35;42.20;;;25.27;;
9449;SDS011;4763;48.370;10.874;2024-03-07T05:55:04;39.53;;;25.67;;
9449;SDS011;4763;48.370;10.874;2024-03-07T05:57:32;40.77;;;25.80;;
9449;SDS011;4763;48.370;10.874;2024-03-07T06:00:02;43.33;;;25.83;;
9449;SDS011;4763;48.370;10.874;2024-03-07T06:02:35;44.83;;;26.70;;
9449;SDS011;4763;48.370;10.874;2024-03-07T06:05:02;40.23;;;25.80;;
9449;SDS011;4763;48.370;10.874;2024-03-07T06:07:36;46.03;;;26.17;;
9449;SDS011;4763;48.370;10.874;2024-03-07T06:10:04;47.53;;;27.30;;
9449;SDS011;4763;48.370;10.874;2024-03-07T06:12:38;43.80;;;25.97;;
9449;SDS011;4763;48.370;10.874;2024-03-07T06:15:10;39.43;;;25.03;;
9449;SDS011;4763;48.370;10.874;2024-03-07T06:17:38;43.30;;;25.83;;
9449;SDS011;4763;48.370;10.874;2024-03-07T06:20:08;42.60;;;25.23;;
9449;SDS011;4763;48.370;10.874;2024-03-07T06:22:49;46.37;;;26.50;;
9449;SDS011;4763;48.370;10.874;2024-03-07T06:25:19;43.07;;;26.50;;
9449;SDS011;4763;48.370;10.874;2024-03-07T06:27:59;46.57;;;26.30;;
9449;SDS011;4763;48.370;10.874;2024-03-07T06:30:33;42.87;;;27.30;;
9449;SDS011;4763;48.370;10.874;2024-03-07T06:33:05;44.10;;;26.97;;
9449;SDS011;4763;48.370;10.874;2024-03-07T06:35:39;47.33;;;27.80;;
9449;SDS011;4763;48.370;10.874;2024-03-07T06:38:08;43.37;;;26.17;;
9449;SDS011;4763;48.370;10.874;2024-03-07T06:40:36;45.60;;;27.00;;
9449;SDS011;4763;48.370;10.874;2024-03-07T06:43:05;44.63;;;26.80;;
9449;SDS011;4763;48.370;10.874;2024-03-07T06:45:36;47.00;;;27.50;;
9449;SDS011;4763;48.370;10.874;2024-03-07T06:48:05;46.00;;;26.63;;
9449;SDS011;4763;48.370;10.874;2024-03-07T06:50:36;48.47;;;27.00;;
9449;SDS011;4763;48.370;10.874;2024-03-07T06:53:10;52.23;;;28.77;;
9449;SDS011;4763;48.370;10.874;2024-03-07T06:55:41;49.33;;;28.47;;
9449;SDS011;4763;48.370;10.874;2024-03-07T06:58:08;49.17;;;29.03;;
9449;SDS011;4763;48.370;10.874;2024-03-07T07:00:37;49.30;;;28.17;;
9449;SDS011;4763;48.370;10.874;2024-03-07T07:03:05;52.73;;;28.63;;
9449;SDS011;4763;48.370;10.874;2024-03-07T07:05:32;44.73;;;28.03;;
9449;SDS011;4763;48.370;10.874;2024-03-07T07:08:00;52.83;;;28.17;;
9449;SDS011;4763;48.370;10.874;2024-03-07T07:10:33;47.83;;;28.47;;
9449;SDS011;4763;48.370;10.874;2024-03-07T07:13:03;43.77;;;28.20;;
9449;SDS011;4763;48.370;10.874;2024-03-07T07:15:37;44.90;;;27.60;;
9449;SDS011;4763;48.370;10.874;2024-03-07T07:18:04;49.07;;;30.30;;
9449;SDS011;4763;48.370;10.874;2024-03-07T07:20:32;51.23;;;29.80;;
9449;SDS011;4763;48.370;10.874;2024-03-07T07:23:00;52.47;;;30.33;;
9449;SDS011;4763;48.370;10.874;2024-03-07T07:25:31;48.37;;;28.73;;
9449;SDS011;4763;48.370;10.874;2024-03-07T07:28:06;56.27;;;29.00;;
9449;SDS011;4763;48.370;10.874;2024-03-07T07:30:33;51.43;;;31.80;;
9449;SDS011;4763;48.370;10.874;2024-03-07T07:33:00;54.93;;;28.87;;
9449;SDS011;4763;48.370;10.874;2024-03-07T07:35:29;47.60;;;28.80;;
9449;SDS011;4763;48.370;10.874;2024-03-07T07:37:56;45.60;;;29.43;;
9449;SDS011;4763;48.370;10.874;2024-03-07T07:40:24;48.43;;;28.67;;
9449;SDS011;4763;48.370;10.874;2024-03-07T07:42:54;48.07;;;28.67;;
9449;SDS011;4763;48.370;10.874;2024-03-07T07:45:22;47.20;;;29.00;;
9449;SDS011;4763;48.370;10.874;2024-03-07T07:47:50;51.67;;;29.50;;
9449;SDS011;4763;48.370;10.874;2024-03-07T07:50:18;45.23;;;28.53;;
9449;SDS011;4763;48.370;10.874;2024-03-07T07:52:49;47.63;;;28.37;;
9449;SDS011;4763;48.370;10.874;2024-03-07T07:55:18;48.60;;;28.83;;
9449;SDS011;4763;48.370;10.874;2024-03-07T07:57:47;52.47;;;29.00;;
9449;SDS011;4763;48.370;10.874;2024-03-07T08:00:17;48.17;;;29.67;;
9449;SDS011;4763;48.370;10.874;2024-03-07T08:02:51;46.53;;;29.90;;
9449;SDS011;4763;48.370;10.874;2024-03-07T08:05:21;45.53;;;28.40;;
9449;SDS011;4763;48.370;10.874;2024-03-07T08:07:52;51.77;;;29.57;;
9449;SDS011;4763;48.370;10.874;2024-03-07T08:10:25;50.23;;;29.70;;
9449;SDS011;4763;48.370;10.874;2024-03-07T08:12:54;53.63;;;30.90;;
9449;SDS011;4763;48.370;10.874;2024-03-07T08:15:25;54.57;;;30.00;;
9449;SDS011;4763;48.370;10.874;2024-03-07T08:17:53;48.97;;;28.80;;
9449;SDS011;4763;48.370;10.874;2024-03-07T08:20:21;49.23;;;29.17;;
9449;SDS011;4763;48.370;10.874;2024-03-07T08:22:51;50.57;;;28.73;;
9449;SDS011;4763;48.370;10.874;2024-03-07T08:25:18;45.93;;;27.93;;
9449;SDS011;4763;48.370;10.874;2024-03-07T08:27:48;45.73;;;28.47;;
9449;SDS011;4763;48.370;10.874;2024-03-07T08:30:15;49.50;;;29.00;;
9449;SDS011;4763;48.370;10.874;2024-03-07T08:32:48;52.30;;;30.63;;
9449;SDS011;4763;48.370;10.874;2024-03-07T08:35:16;53.10;;;31.00;;
9449;SDS011;4763;48.370;10.874;2024-03-07T08:37:45;52.67;;;31.17;;
9449;SDS011;4763;48.370;10.874;2024-03-07T08:40:14;53.33;;;29.77;;
9449;SDS011;4763;48.370;10.874;2024-03-07T08:42:45;48.83;;;29.03;;
9449;SDS011;4763;48.370;10.874;2024-03-07T08:45:13;50.60;;;30.67;;
9449;SDS011;4763;48.370;10.874;2024-03-07T08:47:44;45.63;;;28.80;;
9449;SDS011;4763;48.370;10.874;2024-03-07T08:50:13;45.67;;;27.77;;
9449;SDS011;4763;48.370;10.874;2024-03-07T08:52:43;49.60;;;29.37;;
9449;SDS011;4763;48.370;10.874;2024-03-07T08:55:13;43.73;;;28.07;;
9449;SDS011;4763;48.370;10.874;2024-03-07T08:57:41;48.87;;;28.73;;
9449;SDS011;4763;48.370;10.874;2024-03-07T09:00:11;47.20;;;27.70;;
9449;SDS011;4763;48.370;10.874;2024-03-07T09:02:47;46.57;;;29.00;;
9449;SDS011;4763;48.370;10.874;2024-03-07T09:05:19;50.13;;;29.23;;
9449;SDS011;4763;48.370;10.874;2024-03-07T09:07:47;51.37;;;28.57;;
9449;SDS011;4763;48.370;10.874;2024-03-07T09:10:14;47.83;;;28.07;;
9449;SDS011;4763;48.370;10.874;2024-03-07T09:12:41;48.70;;;29.53;;
9449;SDS011;4763;48.370;10.874;2024-03-07T09:15:09;48.33;;;29.63;;
9449;SDS011;4763;48.370;10.874;2024-03-07T09:17:37;46.23;;;29.03;;
9449;SDS011;4763;48.370;10.874;2024-03-07T09:20:04;46.67;;;27.87;;
9449;SDS011;4763;48.370;10.874;2024-03-07T09:22:34;45.73;;;27.97;;
9449;SDS011;4763;48.370;10.874;2024-03-07T09:25:01;47.10;;;29.90;;
9449;SDS011;4763;48.370;10.874;2024-03-07T09:27:28;44.57;;;28.27;;
9449;SDS011;4763;48.370;10.874;2024-03-07T09:29:54;47.97;;;29.70;;
9449;SDS011;4763;48.370;10.874;2024-03-07T09:32:22;43.60;;;28.87;;
9449;SDS011;4763;48.370;10.874;2024-03-07T09:34:49;48.20;;;30.40;;
9449;SDS011;4763;48.370;10.874;2024-03-07T09:37:16;49.83;;;28.27;;
9449;SDS011;4763;48.370;10.874;2024-03-07T09:39:44;49.07;;;28.47;;
9449;SDS011;4763;48.370;10.874;2024-03-07T09:42:11;45.77;;;28.13;;
9449;SDS011;4763;48.370;10.874;2024-03-07T09:44:42;45.20;;;28.27;;
9449;SDS011;4763;48.370;10.874;2024-03-07T09:47:09;46.27;;;29.57;;
9449;SDS011;4763;48.370;10.874;2024-03-07T09:49:36;51.93;;;29.47;;
9449;SDS011;4763;48.370;10.874;2024-03-07T09:52:04;44.00;;;28.37;;
9449;SDS011;4763;48.370;10.874;2024-03-07T09:54:36;48.80;;;29.17;;
9449;SDS011;4763;48.370;10.874;2024-03-07T09:57:06;47.13;;;28.00;;
9449;SDS011;4763;48.370;10.874;2024-03-07T09:59:34;48.60;;;29.60;;
9449;SDS011;4763;48.370;10.874;2024-03-07T10:02:01;50.00;;;29.47;;
9449;SDS011;4763;48.370;10.874;2024-03-07T10:04:38;45.97;;;29.77;;
9449;SDS011;4763;48.370;10.874;2024-03-07T10:07:10;50.43;;;30.90;;
9449;SDS011;4763;48.370;10.874;2024-03-07T10:09:39;42.13;;;27.70;;
9449;SDS011;4763;48.370;10.874;2024-03-07T10:12:10;44.37;;;26.93;;
9449;SDS011;4763;48.370;10.874;2024-03-07T10:14:47;49.33;;;29.97;;
9449;SDS011;4763;48.370;10.874;2024-03-07T10:17:15;47.90;;;30.67;;
9449;SDS011;4763;48.370;10.874;2024-03-07T10:19:43;46.90;;;30.20;;
9449;SDS011;4763;48.370;10.874;2024-03-07T10:22:13;51.07;;;29.20;;
9449;SDS011;4763;48.370;10.874;2024-03-07T10:24:41;50.67;;;29.83;;
9449;SDS011;4763;48.370;10.874;2024-03-07T10:27:18;47.10;;;30.53;;
9449;SDS011;4763;48.370;10.874;2024-03-07T10:29:46;47.07;;;27.77;;
9449;SDS011;4763;48.370;10.874;2024-03-07T10:32:18;47.30;;;30.07;;
9449;SDS011;4763;48.370;10.874;2024-03-07T10:34:45;48.83;;;30.27;;
9449;SDS011;4763;48.370;10.874;2024-03-07T10:37:13;49.17;;;29.50;;
9449;SDS011;4763;48.370;10.874;2024-03-07T10:39:42;50.33;;;29.20;;
9449;SDS011;4763;48.370;10.874;2024-03-07T10:42:13;48.40;;;29.40;;
9449;SDS011;4763;48.370;10.874;2024-03-07T10:44:43;47.07;;;30.00;;
9449;SDS011;4763;48.370;10.874;2024-03-07T10:47:11;47.87;;;28.23;;
9449;SDS011;4763;48.370;10.874;2024-03-07T10:49:48;46.87;;;27.27;;
9449;SDS011;4763;48.370;10.874;2024-03-07T10:52:28;41.50;;;27.43;;
9449;SDS011;4763;48.370;10.874;2024-03-07T10:55:00;45.40;;;28.30;;
9449;SDS011;4763;48.370;10.874;2024-03-07T10:57:37;43.70;;;26.60;;
9449;SDS011;4763;48.370;10.874;2024-03-07T11:00:19;47.50;;;27.57;;
9449;SDS011;4763;48.370;10.874;2024-03-07T11:02:55;43.33;;;26.93;;
9449;SDS011;4763;48.370;10.874;2024-03-07T11:05:24;43.80;;;27.00;;
9449;SDS011;4763;48.370;10.874;2024-03-07T11:07:54;40.03;;;25.97;;
9449;SDS011;4763;48.370;10.874;2024-03-07T11:10:23;42.03;;;25.37;;
9449;SDS011;4763;48.370;10.874;2024-03-07T11:12:50;43.07;;;26.87;;
9449;SDS011;4763;48.370;10.874;2024-03-07T11:15:19;42.83;;;26.83;;
9449;SDS011;4763;48.370;10.874;2024-03-07T11:17:51;41.83;;;25.97;;
9449;SDS011;4763;48.370;10.874;2024-03-07T11:20:20;39.63;;;25.00;;
9449;SDS011;4763;48.370;10.874;2024-03-07T11:22:48;39.13;;;24.53;;
9449;SDS011;4763;48.370;10.874;2024-03-07T11:25:17;41.30;;;24.20;;
9449;SDS011;4763;48.370;10.874;2024-03-07T11:27:50;39.90;;;24.87;;
9449;SDS011;4763;48.370;10.874;2024-03-07T11:30:20;44.67;;;23.67;;
9449;SDS011;4763;48.370;10.874;2024-03-07T11:32:47;40.37;;;24.27;;
9449;SDS011;4763;48.370;10.874;2024-03-07T11:35:15;39.90;;;23.70;;
9449;SDS011;4763;48.370;10.874;2024-03-07T11:37:47;37.07;;;23.53;;
9449;SDS011;4763;48.370;10.874;2024-03-07T11:43:14;34.77;;;22.23;;
9449;SDS011;4763;48.370;10.874;2024-03-07T11:45:42;36.23;;;21.77;;
9449;SDS011;4763;48.370;10.874;2024-03-07T11:48:17;36.50;;;23.50;;
9449;SDS011;4763;48.370;10.874;2024-03-07T11:50:45;36.53;;;22.70;;
9449;SDS011;4763;48.370;10.874;2024-03-07T11:53:12;34.40;;;21.93;;
9449;SDS011;4763;48.370;10.874;2024-03-07T11:55:40;32.40;;;22.23;;
9449;SDS011;4763;48.370;10.874;2024-03-07T11:58:10;29.13;;;19.43;;
9449;SDS011;4763;48.370;10.874;2024-03-07T12:00:44;36.30;;;22.37;;
9449;SDS011;4763;48.370;10.874;2024-03-07T12:03:12;32.20;;;21.60;;
9449;SDS011;4763;48.370;10.874;2024-03-07T12:05:39;34.17;;;21.67;;
9449;SDS011;4763;48.370;10.874;2024-03-07T12:08:07;37.03;;;22.73;;
9449;SDS011;4763;48.370;10.874;2024-03-07T12:10:35;34.93;;;22.77;;
9449;SDS011;4763;48.370;10.874;2024-03-07T12:13:04;32.30;;;21.70;;
9449;SDS011;4763;48.370;10.874;2024-03-07T12:15:35;30.30;;;19.83;;
9449;SDS011;4763;48.370;10.874;2024-03-07T12:18:04;33.47;;;21.67;;
9449;SDS011;4763;48.370;10.874;2024-03-07T12:20:38;33.27;;;21.43;;
9449;SDS011;4763;48.370;10.874;2024-03-07T12:23:06;30.60;;;20.50;;
9449;SDS011;4763;48.370;10.874;2024-03-07T12:25:34;31.93;;;21.20;;
9449;SDS011;4763;48.370;10.874;2024-03-07T12:28:02;53.93;;;36.83;;
9449;SDS011;4763;48.370;10.874;2024-03-07T12:30:31;38.87;;;25.10;;
9449;SDS011;4763;48.370;10.874;2024-03-07T12:33:00;29.93;;;19.63;;
9449;SDS011;4763;48.370;10.874;2024-03-07T12:35:30;26.77;;;18.27;;
9449;SDS011;4763;48.370;10.874;2024-03-07T12:37:57;29.77;;;18.63;;
9449;SDS011;4763;48.370;10.874;2024-03-07T12:40:24;26.93;;;16.83;;
9449;SDS011;4763;48.370;10.874;2024-03-07T12:42:54;27.13;;;17.47;;
9449;SDS011;4763;48.370;10.874;2024-03-07T12:45:21;24.40;;;16.90;;
9449;SDS011;4763;48.370;10.874;2024-03-07T12:47:48;27.40;;;16.30;;
9449;SDS011;4763;48.370;10.874;2024-03-07T12:50:19;25.80;;;17.23;;
9449;SDS011;4763;48.370;10.874;2024-03-07T12:52:48;23.77;;;15.87;;
9449;SDS011;4763;48.370;10.874;2024-03-07T12:55:15;27.30;;;17.73;;
9449;SDS011;4763;48.370;10.874;2024-03-07T12:57:46;31.77;;;17.63;;
9449;SDS011;4763;48.370;10.874;2024-03-07T13:00:15;38.63;;;17.83;;
9449;SDS011;4763;48.370;10.874;2024-03-07T13:02:48;25.20;;;16.83;;
9449;SDS011;4763;48.370;10.874;2024-03-07T13:05:15;29.57;;;19.70;;
9449;SDS011;4763;48.370;10.874;2024-03-07T13:07:50;26.10;;;17.40;;
9449;SDS011;4763;48.370;10.874;2024-03-07T13:10:18;27.73;;;17.27;;
9449;SDS011;4763;48.370;10.874;2024-03-07T13:12:45;24.87;;;16.10;;
9449;SDS011;4763;48.370;10.874;2024-03-07T13:15:14;25.93;;;16.37;;
9449;SDS011;4763;48.370;10.874;2024-03-07T13:17:44;25.47;;;16.07;;
9449;SDS011;4763;48.370;10.874;2024-03-07T13:20:11;34.90;;;21.17;;
9449;SDS011;4763;48.370;10.874;2024-03-07T13:22:40;24.37;;;15.47;;
9449;SDS011;4763;48.370;10.874;2024-03-07T13:25:10;28.40;;;16.37;;
9449;SDS011;4763;48.370;10.874;2024-03-07T13:27:43;26.20;;;16.10;;
9449;SDS011;4763;48.370;10.874;2024-03-07T13:30:21;26.80;;;16.23;;
9449;SDS011;4763;48.370;10.874;2024-03-07T13:32:52;26.40;;;16.03;;
9449;SDS011;4763;48.370;10.874;2024-03-07T13:35:20;25.97;;;16.07;;
9449;SDS011;4763;48.370;10.874;2024-03-07T13:37:47;23.93;;;15.83;;
9449;SDS011;4763;48.370;10.874;2024-03-07T13:40:16;22.77;;;16.20;;
9449;SDS011;4763;48.370;10.874;2024-03-07T13:42:52;24.20;;;15.43;;
9449;SDS011;4763;48.370;10.874;2024-03-07T13:45:23;23.63;;;15.10;;
9449;SDS011;4763;48.370;10.874;2024-03-07T13:47:51;23.43;;;14.30;;
9449;SDS011;4763;48.370;10.874;2024-03-07T13:50:19;22.60;;;15.00;;
9449;SDS011;4763;48.370;10.874;2024-03-07T13:52:49;20.80;;;13.63;;
9449;SDS011;4763;48.370;10.874;2024-03-07T13:55:48;19.57;;;12.87;;
9449;SDS011;4763;48.370;10.874;2024-03-07T13:58:24;23.17;;;15.07;;
9449;SDS011;4763;48.370;10.874;2024-03-07T14:01:08;24.00;;;15.00;;
9449;SDS011;4763;48.370;10.874;2024-03-07T14:07:05;21.60;;;14.27;;
9449;SDS011;4763;48.370;10.874;2024-03-07T14:10:02;21.43;;;13.93;;
9449;SDS011;4763;48.370;10.874;2024-03-07T14:12:56;20.07;;;13.23;;
9449;SDS011;4763;48.370;10.874;2024-03-07T14:15:44;23.13;;;13.90;;
9449;SDS011;4763;48.370;10.874;2024-03-07T14:21:45;19.53;;;13.03;;
9449;SDS011;4763;48.370;10.874;2024-03-07T14:24:36;27.77;;;13.70;;
9449;SDS011;4763;48.370;10.874;2024-03-07T14:27:22;20.60;;;13.80;;
9449;SDS011;4763;48.370;10.874;2024-03-07T14:29:59;25.50;;;15.60;;
9449;SDS011;4763;48.370;10.874;2024-03-07T14:32:37;23.53;;;13.77;;
9449;SDS011;4763;48.370;10.874;2024-03-07T14:35:08;21.57;;;15.60;;
9449;SDS011;4763;48.370;10.874;2024-03-07T14:37:45;20.47;;;13.43;;
9449;SDS011;4763;48.370;10.874;2024-03-07T14:40:15;22.70;;;14.47;;
9449;SDS011;4763;48.370;10.874;2024-03-07T14:42:43;26.20;;;15.23;;
9449;SDS011;4763;48.370;10.874;2024-03-07T14:45:14;22.40;;;15.07;;
9449;SDS011;4763;48.370;10.874;2024-03-07T14:47:48;23.97;;;16.10;;
9449;SDS011;4763;48.370;10.874;2024-03-07T14:50:17;24.23;;;15.83;;
9449;SDS011;4763;48.370;10.874;2024-03-07T14:52:45;36.03;;;24.57;;
9449;SDS011;4763;48.370;10.874;2024-03-07T14:55:12;26.70;;;16.87;;
9449;SDS011;4763;48.370;10.874;2024-03-07T14:57:44;27.33;;;16.50;;
9449;SDS011;4763;48.370;10.874;2024-03-07T15:00:11;21.00;;;14.10;;
9449;SDS011;4763;48.370;10.874;2024-03-07T15:02:45;25.57;;;16.77;;
9449;SDS011;4763;48.370;10.874;2024-03-07T15:05:13;25.17;;;16.40;;
9449;SDS011;4763;48.370;10.874;2024-03-07T15:07:41;26.63;;;16.73;;
9449;SDS011;4763;48.370;10.874;2024-03-07T15:10:13;25.40;;;16.93;;
9449;SDS011;4763;48.370;10.874;2024-03-07T15:12:43;30.60;;;16.87;;
9449;SDS011;4763;48.370;10.874;2024-03-07T15:15:13;32.57;;;21.03;;
9449;SDS011;4763;48.370;10.874;2024-03-07T15:17:41;26.90;;;16.63;;
9449;SDS011;4763;48.370;10.874;2024-03-07T15:20:09;25.80;;;16.60;;
9449;SDS011;4763;48.370;10.874;2024-03-07T15:22:46;31.27;;;18.53;;
9449;SDS011;4763;48.370;10.874;2024-03-07T15:25:15;52.73;;;29.93;;
9449;SDS011;4763;48.370;10.874;2024-03-07T15:27:43;44.13;;;23.60;;
9449;SDS011;4763;48.370;10.874;2024-03-07T15:30:10;33.40;;;18.73;;
9449;SDS011;4763;48.370;10.874;2024-03-07T15:32:39;32.40;;;19.50;;
9449;SDS011;4763;48.370;10.874;2024-03-07T15:35:07;32.10;;;18.30;;
9449;SDS011;4763;48.370;10.874;2024-03-07T15:37:42;24.63;;;15.73;;
9449;SDS011;4763;48.370;10.874;2024-03-07T15:40:09;26.27;;;15.13;;
9449;SDS011;4763;48.370;10.874;2024-03-07T15:42:40;22.17;;;14.60;;
9449;SDS011;4763;48.370;10.874;2024-03-07T15:50:20;24.57;;;13.70;;
9449;SDS011;4763;48.370;10.874;2024-03-07T15:52:48;19.53;;;13.70;;
9449;SDS011;4763;48.370;10.874;2024-03-07T15:55:17;21.40;;;13.90;;
9449;SDS011;4763;48.370;10.874;2024-03-07T15:57:49;24.07;;;14.23;;
9449;SDS011;4763;48.370;10.874;2024-03-07T16:00:19;21.60;;;14.27;;
9449;SDS011;4763;48.370;10.874;2024-03-07T16:02:51;21.57;;;14.00;;
9449;SDS011;4763;48.370;10.874;2024-03-07T16:05:20;24.60;;;14.07;;
9449;SDS011;4763;48.370;10.874;2024-03-07T16:07:49;22.43;;;13.90;;
9449;SDS011;4763;48.370;10.874;2024-03-07T16:10:16;22.97;;;15.33;;
9449;SDS011;4763;48.370;10.874;2024-03-07T16:12:43;20.40;;;14.53;;
9449;SDS011;4763;48.370;10.874;2024-03-07T16:15:10;24.77;;;14.53;;
9449;SDS011;4763;48.370;10.874;2024-03-07T16:17:37;21.70;;;14.63;;
9449;SDS011;4763;48.370;10.874;2024-03-07T16:20:05;22.90;;;14.43;;
9449;SDS011;4763;48.370;10.874;2024-03-07T16:22:38;21.40;;;13.90;;
9449;SDS011;4763;48.370;10.874;2024-03-07T16:25:07;22.00;;;14.20;;
9449;SDS011;4763;48.370;10.874;2024-03-07T16:27:34;25.17;;;14.73;;
9449;SDS011;4763;48.370;10.874;2024-03-07T16:30:02;26.17;;;14.97;;
9449;SDS011;4763;48.370;10.874;2024-03-07T16:32:32;27.47;;;15.53;;
9449;SDS011;4763;48.370;10.874;2024-03-07T16:34:59;22.47;;;15.07;;
9449;SDS011;4763;48.370;10.874;2024-03-07T16:37:34;25.90;;;16.17;;
9449;SDS011;4763;48.370;10.874;2024-03-07T16:40:05;25.67;;;16.17;;
9449;SDS011;4763;48.370;10.874;2024-03-07T16:42:36;25.90;;;15.77;;
9449;SDS011;4763;48.370;10.874;2024-03-07T16:45:06;24.80;;;15.07;;
9449;SDS011;4763;48.370;10.874;2024-03-07T16:47:36;24.30;;;15.63;;
9449;SDS011;4763;48.370;10.874;2024-03-07T16:50:03;24.37;;;15.70;;
9449;SDS011;4763;48.370;10.874;2024-03-07T16:52:33;22.13;;;14.97;;
9449;SDS011;4763;48.370;10.874;2024-03-07T16:55:01;25.60;;;15.27;;
9449;SDS011;4763;48.370;10.874;2024-03-07T16:57:29;27.70;;;16.87;;
9449;SDS011;4763;48.370;10.874;2024-03-07T16:59:57;26.00;;;16.07;;
9449;SDS011;4763;48.370;10.874;2024-03-07T17:02:23;24.60;;;15.27;;
9449;SDS011;4763;48.370;10.874;2024-03-07T17:04:51;27.80;;;15.57;;
9449;SDS011;4763;48.370;10.874;2024-03-07T17:07:17;23.90;;;15.67;;
9449;SDS011;4763;48.370;10.874;2024-03-07T17:09:44;28.43;;;16.93;;
9449;SDS011;4763;48.370;10.874;2024-03-07T17:12:11;26.30;;;15.93;;
9449;SDS011;4763;48.370;10.874;2024-03-07T17:14:39;24.90;;;15.67;;
9449;SDS011;4763;48.370;10.874;2024-03-07T17:17:08;23.73;;;15.17;;
9449;SDS011;4763;48.370;10.874;2024-03-07T17:19:38;25.67;;;15.93;;
9449;SDS011;4763;48.370;10.874;2024-03-07T17:22:08;22.73;;;14.67;;
9449;SDS011;4763;48.370;10.874;2024-03-07T17:24:35;23.37;;;15.03;;
9449;SDS011;4763;48.370;10.874;2024-03-07T17:27:04;26.37;;;14.93;;
9449;SDS011;4763;48.370;10.874;2024-03-07T17:29:31;21.57;;;13.80;;
9449;SDS011;4763;48.370;10.874;2024-03-07T17:32:06;21.87;;;14.20;;
9449;SDS011;4763;48.370;10.874;2024-03-07T17:34:34;25.53;;;15.00;;
9449;SDS011;4763;48.370;10.874;2024-03-07T17:37:01;23.23;;;15.17;;
9449;SDS011;4763;48.370;10.874;2024-03-07T17:40:19;22.67;;;14.57;;
9449;SDS011;4763;48.370;10.874;2024-03-07T17:42:51;24.33;;;15.57;;
9449;SDS011;4763;48.370;10.874;2024-03-07T17:45:19;28.97;;;15.13;;
9449;SDS011;4763;48.370;10.874;2024-03-07T17:47:48;22.07;;;13.53;;
9449;SDS011;4763;48.370;10.874;2024-03-07T17:50:18;23.10;;;14.97;;
9449;SDS011;4763;48.370;10.874;2024-03-07T17:52:47;24.33;;;14.97;;
